METAR Data
IDs: Format: Raw Decoded Include TAF

Data at: 0754 UTC 18 Sep 2021

LFLU 180730Z AUTO 01005KT CAVOK 17/15 Q1014